createdAt,value
2019-06-08T00:01:02.117Z,63.48
2019-06-08T00:06:04.559Z,63.71
2019-06-08T00:11:07.255Z,64.03
2019-06-08T00:16:09.756Z,64.15
2019-06-08T00:21:11.922Z,64.27
2019-06-08T00:26:15.913Z,64.40
2019-06-08T00:31:19.990Z,64.86
2019-06-08T00:36:22.995Z,65.08
2019-06-08T00:41:26.593Z,65.34
2019-06-08T00:46:28.742Z,65.93
2019-06-08T00:51:31.029Z,66.16
2019-06-08T00:56:33.802Z,66.45
2019-06-08T01:01:36.072Z,66.67
2019-06-08T01:06:38.289Z,66.91
2019-06-08T01:11:40.496Z,67.16
2019-06-08T01:16:42.622Z,67.24
2019-06-08T01:21:44.807Z,67.41
2019-06-08T01:26:47.352Z,67.79
2019-06-08T01:31:50.149Z,67.85
2019-06-08T01:36:52.370Z,68.06
2019-06-08T01:41:54.574Z,68.11
2019-06-08T01:46:56.714Z,68.42
2019-06-08T01:52:00.301Z,68.70
2019-06-08T01:57:02.999Z,68.97
2019-06-08T02:02:05.445Z,68.78
2019-06-08T02:07:07.726Z,67.32
2019-06-08T02:12:10.482Z,66.14
2019-06-08T02:17:12.807Z,66.86
2019-06-08T02:22:15.047Z,66.27
2019-06-08T02:27:17.543Z,65.44
2019-06-08T02:32:19.731Z,64.67
2019-06-08T02:37:22.231Z,64.83
2019-06-08T02:42:24.738Z,65.04
2019-06-08T02:47:28.396Z,65.17
2019-06-08T02:52:34.090Z,64.77
2019-06-08T02:57:39.879Z,65.24
2019-06-08T03:02:43.243Z,65.67
2019-06-08T03:07:50.053Z,65.06
2019-06-08T03:12:54.820Z,65.66
2019-06-08T03:17:57.622Z,65.67
2019-06-08T03:23:00.114Z,65.33
2019-06-08T03:28:02.288Z,65.50
2019-06-08T03:33:04.933Z,64.01
2019-06-08T03:38:07.661Z,64.56
2019-06-08T03:43:11.716Z,63.44
2019-06-08T03:48:14.799Z,63.25
2019-06-08T03:53:17.837Z,63.35
2019-06-08T03:58:20.732Z,64.69
2019-06-08T04:03:23.025Z,66.20
2019-06-08T04:08:25.439Z,66.77
2019-06-08T04:13:27.867Z,66.60
2019-06-08T04:18:30.547Z,65.36
2019-06-08T04:23:32.697Z,64.42
2019-06-08T04:28:35.032Z,65.81
2019-06-08T04:33:37.777Z,64.95
2019-06-08T04:38:41.333Z,65.07
2019-06-08T04:43:45.462Z,64.28
2019-06-08T04:48:50.055Z,64.14
2019-06-08T04:53:53.637Z,63.56
2019-06-08T04:58:56.552Z,64.05
2019-06-08T05:03:59.048Z,64.23
2019-06-08T05:09:01.489Z,64.65
2019-06-08T05:14:05.876Z,64.45
2019-06-08T05:19:08.661Z,63.68
2019-06-08T05:24:11.749Z,62.91
2019-06-08T05:29:14.127Z,62.03
2019-06-08T05:34:16.871Z,61.98
2019-06-08T05:39:19.655Z,60.88
2019-06-08T05:44:22.482Z,61.29
2019-06-08T05:49:25.012Z,61.27
2019-06-08T05:54:27.180Z,61.03
2019-06-08T05:59:29.333Z,60.81
2019-06-08T06:04:31.589Z,60.21
2019-06-08T06:09:34.426Z,59.59
2019-06-08T06:14:37.298Z,58.83
2019-06-08T06:19:41.076Z,58.19
2019-06-08T06:24:45.454Z,57.69
2019-06-08T06:29:47.946Z,57.02
2019-06-08T06:34:50.242Z,56.59
2019-06-08T06:39:53.682Z,54.51
2019-06-08T06:44:56.016Z,53.37
2019-06-08T06:49:58.592Z,53.51
2019-06-08T06:55:01.958Z,52.46
2019-06-08T07:00:06.518Z,52.41
2019-06-08T07:05:09.756Z,52.42
2019-06-08T07:10:12.727Z,51.11
2019-06-08T07:15:26.523Z,49.91
2019-06-08T07:20:29.813Z,49.92
2019-06-08T07:25:32.215Z,49.25
2019-06-08T07:30:34.772Z,49.32
2019-06-08T07:35:38.463Z,48.43
2019-06-08T07:40:41.236Z,46.33
2019-06-08T07:45:43.853Z,46.11
2019-06-08T07:50:48.253Z,46.57
2019-06-08T07:55:53.522Z,47.74
2019-06-08T08:01:03.668Z,48.48
2019-06-08T08:06:00.879Z,49.04
2019-06-08T08:11:03.529Z,48.84
2019-06-08T08:16:06.367Z,49.38
2019-06-08T08:21:21.182Z,49.27
2019-06-08T08:26:13.586Z,48.63
2019-06-08T08:31:18.404Z,48.74
2019-06-08T08:36:21.096Z,48.50
2019-06-08T08:41:24.734Z,49.23
2019-06-08T08:46:28.578Z,48.86
2019-06-08T08:51:31.642Z,49.33
2019-06-08T08:56:34.774Z,49.12
2019-06-08T09:01:38.375Z,49.04
2019-06-08T09:06:41.138Z,48.62
2019-06-08T09:11:43.985Z,48.73
2019-06-08T09:16:49.205Z,48.00
2019-06-08T09:21:53.024Z,47.94
2019-06-08T09:27:00.068Z,47.53
2019-06-08T09:32:03.109Z,47.42
2019-06-08T09:37:08.112Z,47.44
2019-06-08T09:42:11.010Z,47.27
2019-06-08T09:47:13.650Z,46.38
2019-06-08T09:52:18.924Z,45.45
2019-06-08T09:57:22.425Z,44.19
2019-06-08T10:02:28.143Z,45.15
2019-06-08T10:07:31.365Z,45.87
2019-06-08T10:12:34.183Z,46.63
2019-06-08T10:17:37.765Z,46.25
2019-06-08T10:22:42.238Z,46.15
2019-06-08T10:27:44.933Z,46.39
2019-06-08T10:32:50.783Z,47.16
2019-06-08T10:37:55.642Z,47.09
2019-06-08T10:43:00.860Z,46.45
2019-06-08T10:48:03.219Z,47.44
2019-06-08T10:53:10.458Z,47.28
2019-06-08T10:58:12.197Z,46.15
2019-06-08T11:03:15.930Z,45.39
2019-06-08T11:08:19.048Z,44.78
2019-06-08T11:13:22.024Z,42.99
2019-06-08T11:18:24.982Z,40.46
2019-06-08T11:23:28.875Z,40.46
2019-06-08T11:28:31.471Z,33.50
2019-06-08T11:33:34.748Z,34.09
2019-06-08T11:38:38.260Z,34.71
2019-06-08T11:43:41.020Z,35.30
2019-06-08T11:48:43.378Z,34.38
2019-06-08T11:53:49.934Z,33.91
2019-06-08T11:58:53.006Z,33.03
2019-06-08T12:03:57.821Z,32.85
2019-06-08T12:09:00.542Z,32.95
2019-06-08T12:14:04.774Z,35.88
2019-06-08T12:19:11.962Z,35.39
2019-06-08T12:24:12.364Z,34.67
2019-06-08T12:29:16.662Z,34.20
2019-06-08T12:34:19.274Z,34.63
2019-06-08T12:39:21.573Z,33.56
2019-06-08T12:44:28.484Z,33.45
2019-06-08T12:49:30.390Z,33.03
2019-06-08T12:54:33.182Z,32.48
2019-06-08T12:59:35.471Z,31.88
2019-06-08T13:04:38.487Z,31.62
2019-06-08T13:09:41.717Z,29.37
2019-06-08T13:14:43.907Z,28.93
2019-06-08T13:19:48.215Z,28.71
2019-06-08T13:24:51.623Z,29.38
2019-06-08T13:29:53.957Z,28.48
2019-06-08T13:34:58.263Z,28.79
2019-06-08T13:40:02.083Z,28.83
2019-06-08T13:45:07.524Z,29.00
2019-06-08T13:50:13.051Z,29.01
2019-06-08T13:55:34.689Z,28.03
2019-06-08T14:00:33.203Z,28.31
2019-06-08T14:05:38.835Z,27.87
2019-06-08T14:10:41.489Z,27.87
2019-06-08T14:15:43.850Z,28.48
2019-06-08T14:20:48.385Z,28.66
2019-06-08T14:25:56.751Z,28.34
2019-06-08T14:30:55.049Z,28.49
2019-06-08T14:35:59.179Z,27.31
2019-06-08T14:41:02.314Z,28.52
2019-06-08T14:46:04.834Z,28.29
2019-06-08T14:51:08.751Z,28.00
2019-06-08T14:56:13.487Z,29.31
2019-06-08T15:01:19.462Z,29.65
2019-06-08T15:06:21.089Z,28.85
2019-06-08T15:11:23.472Z,28.33
2019-06-08T15:16:25.833Z,29.31
2019-06-08T15:21:32.654Z,29.60
2019-06-08T15:26:42.331Z,29.87
2019-06-08T15:31:39.048Z,29.93
2019-06-08T15:36:41.789Z,29.62
2019-06-08T15:41:44.339Z,30.09
2019-06-08T15:46:49.310Z,30.79
2019-06-08T15:51:52.112Z,30.19
2019-06-08T15:56:55.235Z,30.86
2019-06-08T16:01:57.487Z,30.80
2019-06-08T16:07:00.210Z,30.86
2019-06-08T16:12:03.006Z,30.60
2019-06-08T16:17:06.514Z,31.21
2019-06-08T16:22:08.675Z,30.53
2019-06-08T16:27:12.168Z,30.30
2019-06-08T16:32:14.476Z,30.47
2019-06-08T16:37:17.659Z,30.83
2019-06-08T16:42:19.851Z,30.47
2019-06-08T16:47:22.077Z,30.36
2019-06-08T16:52:25.309Z,30.89
2019-06-08T16:57:28.813Z,30.13
2019-06-08T17:02:32.731Z,30.67
2019-06-08T17:07:35.557Z,30.35
2019-06-08T17:12:39.113Z,30.37
2019-06-08T17:17:41.496Z,30.72
2019-06-08T17:22:44.545Z,31.13
2019-06-08T17:27:46.693Z,31.25
2019-06-08T17:32:49.741Z,31.83
2019-06-08T17:37:52.633Z,31.84
2019-06-08T17:42:55.510Z,32.55
2019-06-08T17:47:57.879Z,32.56
2019-06-08T17:53:00.080Z,32.76
2019-06-08T17:58:02.263Z,32.47
2019-06-08T18:03:05.063Z,32.64
2019-06-08T18:08:07.828Z,32.86
2019-06-08T18:13:10.961Z,32.96
2019-06-08T18:18:14.270Z,32.72
2019-06-08T18:23:17.336Z,32.67
2019-06-08T18:28:19.791Z,32.80
2019-06-08T18:33:22.203Z,32.85
2019-06-08T18:38:27.281Z,32.99
2019-06-08T18:43:29.433Z,33.57
2019-06-08T18:48:32.764Z,33.87
2019-06-08T18:53:49.223Z,34.21
2019-06-08T18:58:42.169Z,34.70
2019-06-08T19:03:47.923Z,34.98
2019-06-08T19:08:51.059Z,35.24
2019-06-08T19:13:54.376Z,35.45
2019-06-08T19:18:58.111Z,35.58
2019-06-08T19:24:01.095Z,35.72
2019-06-08T19:29:03.671Z,35.86
2019-06-08T19:34:07.651Z,36.13
2019-06-08T19:39:10.454Z,36.35
2019-06-08T19:44:13.848Z,36.11
2019-06-08T19:49:17.319Z,36.50
2019-06-08T19:54:19.879Z,36.56
2019-06-08T19:59:22.206Z,36.87
2019-06-08T20:04:27.553Z,37.05
2019-06-08T20:09:31.425Z,37.29
2019-06-08T20:14:34.352Z,37.36
2019-06-08T20:19:38.709Z,37.60
2019-06-08T20:24:42.466Z,37.61
2019-06-08T20:29:47.843Z,37.71
2019-06-08T20:34:51.129Z,37.76
2019-06-08T20:40:07.117Z,37.91
2019-06-08T20:45:00.236Z,38.10
2019-06-08T20:50:04.521Z,38.25
2019-06-08T20:55:07.981Z,38.47
2019-06-08T21:00:12.002Z,38.59
2019-06-08T21:05:15.328Z,38.76
2019-06-08T21:10:17.972Z,39.00
2019-06-08T21:15:21.619Z,39.08
2019-06-08T21:20:24.319Z,39.17
2019-06-08T21:25:28.101Z,39.35
2019-06-08T21:30:31.802Z,39.41
2019-06-08T21:35:34.291Z,39.61
2019-06-08T21:40:37.997Z,39.62
2019-06-08T21:45:41.089Z,39.67
2019-06-08T21:50:43.575Z,39.94
2019-06-08T21:55:46.505Z,40.15
2019-06-08T22:00:52.562Z,40.36
2019-06-08T22:05:58.465Z,40.53
2019-06-08T22:11:00.736Z,40.79
2019-06-08T22:16:04.293Z,40.99
2019-06-08T22:21:08.306Z,40.99
2019-06-08T22:26:11.044Z,41.15
2019-06-08T22:31:14.140Z,41.23
2019-06-08T22:36:17.071Z,41.54
2019-06-08T22:41:20.189Z,41.54
2019-06-08T22:46:23.100Z,41.63
2019-06-08T22:51:28.104Z,41.76
2019-06-08T22:56:31.588Z,41.99
2019-06-08T23:01:34.609Z,42.34
2019-06-08T23:06:38.621Z,42.66
2019-06-08T23:11:41.860Z,42.94
2019-06-08T23:16:47.189Z,43.28
2019-06-08T23:21:49.644Z,43.35
2019-06-08T23:26:51.806Z,43.57
2019-06-08T23:31:54.210Z,43.78
2019-06-08T23:37:00.038Z,43.87
2019-06-08T23:42:01.626Z,44.11
2019-06-08T23:47:04.586Z,44.29
2019-06-08T23:52:11.276Z,44.76
2019-06-08T23:57:11.460Z,45.05
